createdAt,value
2023-04-10T00:01:18.576Z,5.54
2023-04-10T00:03:46.405Z,5.64
2023-04-10T00:06:14.176Z,5.82
2023-04-10T00:08:43.151Z,5.66
2023-04-10T00:11:10.817Z,5.62
2023-04-10T00:13:38.399Z,5.49
2023-04-10T00:16:06.760Z,5.51
2023-04-10T00:18:34.354Z,5.66
2023-04-10T00:21:03.593Z,5.70
2023-04-10T00:23:31.905Z,5.68
2023-04-10T00:26:00.889Z,5.77
2023-04-10T00:28:28.534Z,6.05
2023-04-10T00:30:56.434Z,6.06
2023-04-10T00:33:24.089Z,6.19
2023-04-10T00:35:51.725Z,5.85
2023-04-10T00:38:19.539Z,5.70
2023-04-10T00:40:47.162Z,5.57
2023-04-10T00:43:16.431Z,5.61
2023-04-10T00:45:44.045Z,5.66
2023-04-10T00:48:11.971Z,5.38
2023-04-10T00:50:39.674Z,5.39
2023-04-10T00:53:07.809Z,5.29
2023-04-10T00:55:35.587Z,5.69
2023-04-10T00:58:03.791Z,5.38
2023-04-10T01:00:33.296Z,5.46
2023-04-10T01:03:01.616Z,5.63
2023-04-10T01:05:40.523Z,5.62
2023-04-10T01:08:18.744Z,5.49
2023-04-10T01:10:52.611Z,5.53
2023-04-10T01:13:25.742Z,5.63
2023-04-10T01:16:02.646Z,5.59
2023-04-10T01:18:35.417Z,5.51
2023-04-10T01:21:08.083Z,5.58
2023-04-10T01:23:53.835Z,5.72
2023-04-10T01:26:37.749Z,5.88
2023-04-10T01:29:09.411Z,5.99
2023-04-10T01:31:43.100Z,6.15
2023-04-10T01:34:16.307Z,6.20
2023-04-10T01:36:54.853Z,6.27
2023-04-10T01:39:23.787Z,6.28
2023-04-10T01:41:53.470Z,6.29
2023-04-10T01:44:25.602Z,6.13
2023-04-10T01:46:54.674Z,6.17
2023-04-10T01:49:24.816Z,6.16
2023-04-10T01:51:54.266Z,6.21
2023-04-10T01:54:22.301Z,6.23
2023-04-10T01:56:49.904Z,6.26
2023-04-10T01:59:17.753Z,6.33
2023-04-10T02:01:47.071Z,6.40
2023-04-10T02:04:14.974Z,6.23
2023-04-10T02:06:51.437Z,6.28
2023-04-10T02:09:22.874Z,6.50
2023-04-10T02:11:55.757Z,6.47
2023-04-10T02:14:24.980Z,6.52
2023-04-10T02:16:56.301Z,6.20
2023-04-10T02:19:26.133Z,6.28
2023-04-10T02:21:55.110Z,6.38
2023-04-10T02:24:23.537Z,6.47
2023-04-10T02:26:52.743Z,6.47
2023-04-10T02:29:20.382Z,6.47
2023-04-10T02:31:48.068Z,6.33
2023-04-10T02:34:17.052Z,6.34
2023-04-10T02:36:44.664Z,6.34
2023-04-10T02:39:12.306Z,6.36
2023-04-10T02:41:39.861Z,6.40
2023-04-10T02:44:07.873Z,6.44
2023-04-10T02:46:35.653Z,6.40
2023-04-10T02:49:03.345Z,6.38
2023-04-10T02:51:36.220Z,6.34
2023-04-10T02:54:04.683Z,6.20
2023-04-10T02:56:34.891Z,6.17
2023-04-10T02:59:02.546Z,6.07
2023-04-10T03:01:30.902Z,6.38
2023-04-10T03:03:59.026Z,6.36
2023-04-10T03:06:27.377Z,6.45
2023-04-10T03:08:56.613Z,6.56
2023-04-10T03:11:24.333Z,6.55
2023-04-10T03:13:52.308Z,6.64
2023-04-10T03:16:20.695Z,6.78
2023-04-10T03:18:48.600Z,6.77
2023-04-10T03:21:16.402Z,6.64
2023-04-10T03:23:44.081Z,6.47
2023-04-10T03:26:13.028Z,6.26
2023-04-10T03:28:41.424Z,6.26
2023-04-10T03:31:09.771Z,6.23
2023-04-10T03:33:37.509Z,6.05
2023-04-10T03:36:05.982Z,5.89
2023-04-10T03:38:33.618Z,5.94
2023-04-10T03:41:01.223Z,5.99
2023-04-10T03:43:30.595Z,6.11
2023-04-10T03:45:58.281Z,6.08
2023-04-10T03:48:28.241Z,6.14
2023-04-10T03:50:56.423Z,6.34
2023-04-10T03:53:24.252Z,6.27
2023-04-10T03:55:52.452Z,6.44
2023-04-10T03:58:20.364Z,6.51
2023-04-10T04:00:49.352Z,6.59
2023-04-10T04:03:17.257Z,6.53
2023-04-10T04:05:45.469Z,6.44
2023-04-10T04:08:14.058Z,6.52
2023-04-10T04:10:41.719Z,6.85
2023-04-10T04:13:09.357Z,6.83
2023-04-10T04:15:37.047Z,6.56
2023-04-10T04:18:06.188Z,6.66
2023-04-10T04:20:33.854Z,6.64
2023-04-10T04:23:01.457Z,6.65
2023-04-10T04:25:29.107Z,6.60
2023-04-10T04:27:57.583Z,6.49
2023-04-10T04:30:25.227Z,6.46
2023-04-10T04:32:52.957Z,6.41
2023-04-10T04:35:22.705Z,6.37
2023-04-10T04:37:50.287Z,6.08
2023-04-10T04:40:18.341Z,5.97
2023-04-10T04:42:46.053Z,6.03
2023-04-10T04:45:14.203Z,5.95
2023-04-10T04:47:41.851Z,5.86
2023-04-10T04:50:11.404Z,5.69
2023-04-10T04:52:40.388Z,5.71
2023-04-10T04:55:09.672Z,5.80
2023-04-10T04:57:37.323Z,5.58
2023-04-10T05:00:06.211Z,5.63
2023-04-10T05:02:34.022Z,5.47
2023-04-10T05:05:02.088Z,5.61
2023-04-10T05:07:29.927Z,5.63
2023-04-10T05:09:58.897Z,5.75
2023-04-10T05:12:26.513Z,5.85
2023-04-10T05:14:54.321Z,5.87
2023-04-10T05:17:21.988Z,5.84
2023-04-10T05:19:49.806Z,5.85
2023-04-10T05:22:18.650Z,5.97
2023-04-10T05:24:46.582Z,6.05
2023-04-10T05:27:15.616Z,6.14
2023-04-10T05:29:43.203Z,6.17
2023-04-10T05:32:10.968Z,6.36
2023-04-10T05:34:38.654Z,6.57
2023-04-10T05:37:06.308Z,6.59
2023-04-10T05:39:33.958Z,6.88
2023-04-10T05:42:01.750Z,7.02
2023-04-10T05:44:31.718Z,7.31
2023-04-10T05:46:59.369Z,7.51
2023-04-10T05:49:27.041Z,7.73
2023-04-10T05:51:54.828Z,7.70
2023-04-10T05:54:22.727Z,7.53
2023-04-10T05:56:50.430Z,7.50
2023-04-10T05:59:18.093Z,7.93
2023-04-10T06:01:47.444Z,8.21
2023-04-10T06:04:15.459Z,8.23
2023-04-10T06:06:43.371Z,8.76
2023-04-10T06:09:11.020Z,8.78
2023-04-10T06:11:38.699Z,9.50
2023-04-10T06:14:06.713Z,9.09
2023-04-10T06:16:34.604Z,9.61
2023-04-10T06:19:03.817Z,9.50
2023-04-10T06:21:31.662Z,9.85
2023-04-10T06:23:59.298Z,9.51
2023-04-10T06:26:27.281Z,9.45
2023-04-10T06:28:55.474Z,10.18
2023-04-10T06:31:23.362Z,10.79
2023-04-10T06:33:51.548Z,11.49
2023-04-10T06:36:20.580Z,11.04
2023-04-10T06:38:48.255Z,11.52
2023-04-10T06:41:15.995Z,12.51
2023-04-10T06:43:43.837Z,10.97
2023-04-10T06:46:11.420Z,12.01
2023-04-10T06:48:38.976Z,12.14
2023-04-10T06:51:07.115Z,12.76
2023-04-10T06:53:36.322Z,12.86
2023-04-10T06:56:04.265Z,13.03
2023-04-10T06:58:32.157Z,12.58
2023-04-10T07:03:32.372Z,13.30
2023-04-10T07:06:00.502Z,13.47
2023-04-10T07:08:28.210Z,13.72
2023-04-10T07:10:58.630Z,13.66
2023-04-10T07:13:26.596Z,13.98
2023-04-10T07:15:54.319Z,13.92
2023-04-10T07:18:22.339Z,14.39
2023-04-10T07:20:52.027Z,14.05
2023-04-10T07:23:20.427Z,13.13
2023-04-10T07:25:48.162Z,14.17
2023-04-10T07:28:17.164Z,13.50
2023-04-10T07:30:44.851Z,14.08
2023-04-10T07:33:12.640Z,13.89
2023-04-10T07:35:40.516Z,14.14
2023-04-10T07:38:08.162Z,14.90
2023-04-10T07:40:35.797Z,14.61
2023-04-10T07:43:03.421Z,13.99
2023-04-10T07:45:32.689Z,13.50
2023-04-10T07:48:00.422Z,13.26
2023-04-10T07:50:28.286Z,14.49
2023-04-10T07:52:56.312Z,14.89
2023-04-10T07:55:23.974Z,14.64
2023-04-10T07:57:52.326Z,14.18
2023-04-10T08:00:20.348Z,14.52
2023-04-10T08:02:49.471Z,14.36
2023-04-10T08:05:17.336Z,14.23
2023-04-10T08:07:45.899Z,14.41
2023-04-10T08:10:13.841Z,14.25
2023-04-10T08:12:41.465Z,14.75
2023-04-10T08:15:09.885Z,15.46
2023-04-10T08:17:37.686Z,15.23
2023-04-10T08:20:08.252Z,14.54
2023-04-10T08:22:35.889Z,15.03
2023-04-10T08:25:03.796Z,15.19
2023-04-10T08:27:31.651Z,14.72
2023-04-10T08:29:59.310Z,14.53
2023-04-10T08:32:27.579Z,14.72
2023-04-10T08:34:55.352Z,15.02
2023-04-10T08:37:24.440Z,16.21
2023-04-10T08:39:52.163Z,15.59
2023-04-10T08:42:19.877Z,16.15
2023-04-10T08:44:50.202Z,16.64
2023-04-10T08:47:24.451Z,16.51
2023-04-10T08:49:55.786Z,16.70
2023-04-10T08:52:26.594Z,17.07
2023-04-10T08:54:56.567Z,16.75
2023-04-10T08:57:26.777Z,16.95
2023-04-10T08:59:54.577Z,16.81
2023-04-10T09:02:23.149Z,16.62
2023-04-10T09:04:53.987Z,15.91
2023-04-10T09:07:23.063Z,15.81
2023-04-10T09:09:52.161Z,16.43
2023-04-10T09:12:19.765Z,16.80
2023-04-10T09:14:49.674Z,16.76
2023-04-10T09:17:19.491Z,16.40
2023-04-10T09:19:48.553Z,17.15
2023-04-10T09:22:16.972Z,16.67
2023-04-10T09:24:46.655Z,17.14
2023-04-10T09:27:31.267Z,16.89
2023-04-10T09:29:59.930Z,16.22
2023-04-10T09:32:39.382Z,16.65
2023-04-10T09:35:08.603Z,16.30
2023-04-10T09:37:37.845Z,16.13
2023-04-10T09:40:06.848Z,17.48
2023-04-10T09:42:37.635Z,17.74
2023-04-10T09:45:06.381Z,17.03
2023-04-10T09:47:34.255Z,17.98
2023-04-10T09:50:02.756Z,17.92
2023-04-10T09:52:32.506Z,17.72
2023-04-10T09:55:01.921Z,18.70
2023-04-10T09:57:31.869Z,18.45
2023-04-10T10:00:02.582Z,18.18
2023-04-10T10:02:31.643Z,18.66
2023-04-10T10:05:01.672Z,19.07
2023-04-10T10:07:31.444Z,19.10
2023-04-10T10:09:59.724Z,19.09
2023-04-10T10:12:35.477Z,19.17
2023-04-10T10:15:11.830Z,19.97
2023-04-10T10:17:44.897Z,19.65
2023-04-10T10:20:14.469Z,19.13
2023-04-10T10:22:42.942Z,19.85
2023-04-10T10:25:11.783Z,19.86
2023-04-10T10:27:40.969Z,20.54
2023-04-10T10:30:27.949Z,20.54
2023-04-10T10:32:58.773Z,19.77
2023-04-10T10:35:29.700Z,19.24
2023-04-10T10:38:00.144Z,19.36
2023-04-10T10:40:32.933Z,19.63
2023-04-10T10:43:13.095Z,18.84
2023-04-10T10:45:52.046Z,19.54
2023-04-10T10:48:19.745Z,18.88
2023-04-10T10:50:57.054Z,19.74
2023-04-10T10:53:36.188Z,20.12
2023-04-10T10:56:38.523Z,19.43
2023-04-10T10:59:06.248Z,20.02
2023-04-10T11:01:35.437Z,20.23
2023-04-10T11:04:42.310Z,20.10
2023-04-10T11:07:10.364Z,19.69
2023-04-10T11:09:49.052Z,19.56
2023-04-10T11:12:17.267Z,20.39
2023-04-10T11:14:46.372Z,20.88
2023-04-10T11:17:48.953Z,20.28
2023-04-10T11:20:16.862Z,19.44
2023-04-10T11:23:11.231Z,19.51
2023-04-10T11:25:50.356Z,19.89
2023-04-10T11:28:38.256Z,20.26
2023-04-10T11:31:20.959Z,20.16
2023-04-10T11:34:01.297Z,20.05
2023-04-10T11:36:29.585Z,20.05
2023-04-10T11:38:58.723Z,20.43
2023-04-10T11:41:31.968Z,20.49
2023-04-10T11:44:00.396Z,20.87
2023-04-10T11:46:28.291Z,20.82
2023-04-10T11:49:00.632Z,19.89
2023-04-10T11:51:29.357Z,19.81
2023-04-10T11:54:10.733Z,19.86
2023-04-10T11:56:40.420Z,20.05
2023-04-10T11:59:10.950Z,20.63
2023-04-10T12:01:41.914Z,20.87
2023-04-10T12:04:19.592Z,20.13
2023-04-10T12:06:48.374Z,20.50
2023-04-10T12:09:17.502Z,20.27
2023-04-10T12:11:56.201Z,20.74
2023-04-10T12:14:25.261Z,19.85
2023-04-10T12:16:53.851Z,20.27
2023-04-10T12:19:23.712Z,20.43
2023-04-10T12:21:51.678Z,21.17
2023-04-10T12:24:44.252Z,20.28
2023-04-10T12:27:19.037Z,21.78
2023-04-10T12:29:47.387Z,22.33
2023-04-10T12:32:15.779Z,21.17
2023-04-10T12:34:51.480Z,21.03
2023-04-10T12:37:19.238Z,20.85
2023-04-10T12:39:46.971Z,20.36
2023-04-10T12:42:15.964Z,21.11
2023-04-10T12:44:54.109Z,20.69
2023-04-10T12:47:22.052Z,20.65
2023-04-10T12:50:08.765Z,20.82
2023-04-10T12:52:36.972Z,20.42
2023-04-10T12:55:13.029Z,20.37
2023-04-10T12:57:42.404Z,20.00
2023-04-10T13:00:12.431Z,20.65
2023-04-10T13:02:41.170Z,20.54
2023-04-10T13:05:11.438Z,20.57
2023-04-10T13:07:39.546Z,20.84
2023-04-10T13:10:08.392Z,20.34
2023-04-10T13:12:38.084Z,19.94
2023-04-10T13:15:07.465Z,20.34
2023-04-10T13:17:35.594Z,19.21
2023-04-10T13:20:03.674Z,19.14
2023-04-10T13:22:32.778Z,19.68
2023-04-10T13:25:00.454Z,19.80
2023-04-10T13:27:28.199Z,20.19
2023-04-10T13:29:56.469Z,19.88
2023-04-10T13:32:24.107Z,20.00
2023-04-10T13:34:52.339Z,20.22
2023-04-10T13:37:20.314Z,19.71
2023-04-10T13:39:49.673Z,19.95
2023-04-10T13:42:17.280Z,20.01
2023-04-10T13:44:45.264Z,20.10
2023-04-10T13:47:12.947Z,20.12
2023-04-10T13:49:40.777Z,19.54
2023-04-10T13:52:08.387Z,19.47
2023-04-10T13:54:36.153Z,20.15
2023-04-10T13:57:07.091Z,19.77
2023-04-10T13:59:34.731Z,20.27
2023-04-10T14:02:02.779Z,19.87
2023-04-10T14:04:30.754Z,19.95
2023-04-10T14:07:00.461Z,20.12
2023-04-10T14:09:28.195Z,20.74
2023-04-10T14:11:56.063Z,19.93
2023-04-10T14:14:25.059Z,20.15
2023-04-10T14:16:52.784Z,20.47
2023-04-10T14:19:20.697Z,19.78
2023-04-10T14:21:48.309Z,20.01
2023-04-10T14:24:15.933Z,20.19
2023-04-10T14:26:43.561Z,20.02
2023-04-10T14:29:11.233Z,20.27
2023-04-10T14:31:47.135Z,20.51
2023-04-10T14:34:22.548Z,20.52
2023-04-10T14:36:55.794Z,20.50
2023-04-10T14:39:25.050Z,20.48
2023-04-10T14:41:53.353Z,21.07
2023-04-10T14:44:21.324Z,20.83
2023-04-10T14:46:50.443Z,20.82
2023-04-10T14:49:18.197Z,19.68
2023-04-10T14:51:48.325Z,19.38
2023-04-10T14:54:16.997Z,19.42
2023-04-10T14:56:44.978Z,19.65
2023-04-10T14:59:12.635Z,19.48
2023-04-10T15:01:40.340Z,19.48
2023-04-10T15:04:09.587Z,19.69
2023-04-10T15:06:37.420Z,19.56
2023-04-10T15:09:05.178Z,19.83
2023-04-10T15:11:33.098Z,19.45
2023-04-10T15:14:02.264Z,19.33
2023-04-10T15:16:30.479Z,19.17
2023-04-10T15:18:58.195Z,18.98
2023-04-10T15:21:28.015Z,18.89
2023-04-10T15:23:55.984Z,18.71
2023-04-10T15:26:23.995Z,18.75
2023-04-10T15:28:51.693Z,18.69
2023-04-10T15:31:23.146Z,18.81
2023-04-10T15:33:52.499Z,18.99
2023-04-10T15:36:20.425Z,18.84
2023-04-10T15:38:50.376Z,18.70
2023-04-10T15:41:18.331Z,18.54
2023-04-10T15:43:46.365Z,18.77
2023-04-10T15:47:05.178Z,18.84
2023-04-10T15:49:37.933Z,19.12
2023-04-10T15:52:06.641Z,19.19
2023-04-10T15:54:36.862Z,19.08
2023-04-10T15:57:04.754Z,19.34
2023-04-10T15:59:34.013Z,18.98
2023-04-10T16:02:02.002Z,18.89
2023-04-10T16:04:31.598Z,18.50
2023-04-10T16:06:59.718Z,18.58
2023-04-10T16:09:27.627Z,18.54
2023-04-10T16:11:58.017Z,18.29
2023-04-10T16:14:25.840Z,18.06
2023-04-10T16:16:53.707Z,18.25
2023-04-10T16:19:21.910Z,18.08
2023-04-10T16:21:51.133Z,18.19
2023-04-10T16:24:19.125Z,18.11
2023-04-10T16:26:47.127Z,17.89
2023-04-10T16:29:19.526Z,17.85
2023-04-10T16:31:48.274Z,17.76
2023-04-10T16:34:16.477Z,17.76
2023-04-10T16:36:44.288Z,17.60
2023-04-10T16:39:12.364Z,17.77
2023-04-10T16:41:40.122Z,17.71
2023-04-10T16:44:08.109Z,17.86
2023-04-10T16:46:37.692Z,17.81
2023-04-10T16:49:05.711Z,17.83
2023-04-10T16:51:33.452Z,17.73
2023-04-10T16:54:02.470Z,17.49
2023-04-10T16:56:32.167Z,17.67
2023-04-10T16:58:59.932Z,17.49
2023-04-10T17:01:28.472Z,17.60
2023-04-10T17:03:57.631Z,17.51
2023-04-10T17:06:25.770Z,17.37
2023-04-10T17:08:53.698Z,17.33
2023-04-10T17:11:21.630Z,17.41
2023-04-10T17:13:49.322Z,17.39
2023-04-10T17:16:17.272Z,17.33
2023-04-10T17:18:45.236Z,17.30
2023-04-10T17:21:15.253Z,17.43
2023-04-10T17:23:43.267Z,17.35
2023-04-10T17:26:17.416Z,17.27
2023-04-10T17:28:46.299Z,17.38
2023-04-10T17:31:14.808Z,17.26
2023-04-10T17:33:42.841Z,17.29
2023-04-10T17:36:13.377Z,17.28
2023-04-10T17:38:43.398Z,17.28
2023-04-10T17:41:11.402Z,17.21
2023-04-10T17:43:40.161Z,17.19
2023-04-10T17:46:08.545Z,17.29
2023-04-10T17:48:38.969Z,17.34
2023-04-10T17:51:07.342Z,17.26
2023-04-10T17:53:35.810Z,17.24
2023-04-10T17:56:05.492Z,17.01
2023-04-10T17:58:33.429Z,16.98
2023-04-10T18:01:01.272Z,16.98
2023-04-10T18:03:29.367Z,17.05
2023-04-10T18:05:57.269Z,16.96
2023-04-10T18:08:24.997Z,16.90
2023-04-10T18:10:52.872Z,16.84
2023-04-10T18:13:21.994Z,16.85
2023-04-10T18:15:49.755Z,16.72
2023-04-10T18:18:17.373Z,16.91
2023-04-10T18:20:45.069Z,16.90
2023-04-10T18:23:13.270Z,16.88
2023-04-10T18:25:41.048Z,16.75
2023-04-10T18:28:14.972Z,16.71
2023-04-10T18:30:45.576Z,16.67
2023-04-10T18:33:14.105Z,16.79
2023-04-10T18:35:42.171Z,16.73
2023-04-10T18:38:10.469Z,16.46
2023-04-10T18:40:38.240Z,16.46
2023-04-10T18:43:06.380Z,16.38
2023-04-10T18:45:34.411Z,16.38
2023-04-10T18:48:04.662Z,16.32
2023-04-10T18:50:35.785Z,16.38
2023-04-10T18:53:03.934Z,16.38
2023-04-10T18:55:32.212Z,16.43
2023-04-10T18:58:00.535Z,16.41
2023-04-10T19:00:28.442Z,16.39
2023-04-10T19:02:56.713Z,16.31
2023-04-10T19:05:29.126Z,16.28
2023-04-10T19:08:04.152Z,16.18
2023-04-10T19:10:33.152Z,16.16
2023-04-10T19:13:01.034Z,16.16
2023-04-10T19:15:28.871Z,16.23
2023-04-10T19:17:57.174Z,16.16
2023-04-10T19:20:50.208Z,16.08
2023-04-10T19:23:14.701Z,16.12
2023-04-10T19:25:43.663Z,16.14
2023-04-10T19:28:11.682Z,16.19
2023-04-10T19:30:39.643Z,16.10
2023-04-10T19:33:07.490Z,16.09
2023-04-10T19:35:36.908Z,16.06
2023-04-10T19:38:04.856Z,16.05
2023-04-10T19:40:32.814Z,16.03
2023-04-10T19:43:01.985Z,16.00
2023-04-10T19:45:33.134Z,16.00
2023-04-10T19:48:01.188Z,15.97
2023-04-10T19:50:30.701Z,15.93
2023-04-10T19:53:00.560Z,15.96
2023-04-10T19:55:29.089Z,16.01
2023-04-10T19:57:57.106Z,15.96
2023-04-10T20:00:25.100Z,15.85
2023-04-10T20:02:53.252Z,15.89
2023-04-10T20:05:21.785Z,15.86
2023-04-10T20:07:50.310Z,15.83
2023-04-10T20:10:20.999Z,15.84
2023-04-10T20:12:48.637Z,15.95
2023-04-10T20:15:16.425Z,15.85
2023-04-10T20:17:44.084Z,15.94
2023-04-10T20:20:13.728Z,15.75
2023-04-10T20:22:41.471Z,15.69
2023-04-10T20:25:09.872Z,15.77
2023-04-10T20:27:38.990Z,15.66
2023-04-10T20:30:08.272Z,15.64
2023-04-10T20:32:37.041Z,15.58
2023-04-10T20:35:05.299Z,15.68
2023-04-10T20:37:33.008Z,15.61
2023-04-10T20:40:01.116Z,15.65
2023-04-10T20:42:28.970Z,15.60
2023-04-10T20:44:59.161Z,15.64
2023-04-10T20:47:26.870Z,15.68
2023-04-10T20:49:55.127Z,15.68
2023-04-10T20:52:24.001Z,15.65
2023-04-10T20:54:52.805Z,15.61
2023-04-10T20:57:20.837Z,15.71
2023-04-10T20:59:48.616Z,15.57
2023-04-10T21:02:18.208Z,15.54
2023-04-10T21:04:45.962Z,15.51
2023-04-10T21:07:13.636Z,15.52
2023-04-10T21:09:41.410Z,15.51
2023-04-10T21:12:09.173Z,15.51
2023-04-10T21:14:37.093Z,15.50
2023-04-10T21:17:04.912Z,15.50
2023-04-10T21:19:34.438Z,15.46
2023-04-10T21:22:02.405Z,15.42
2023-04-10T21:24:30.494Z,15.38
2023-04-10T21:26:59.643Z,15.45
2023-04-10T21:29:28.586Z,15.41
2023-04-10T21:31:57.008Z,15.41
2023-04-10T21:34:25.148Z,15.37
2023-04-10T21:36:55.206Z,15.42
2023-04-10T21:39:23.004Z,15.39
2023-04-10T21:41:55.319Z,15.34
2023-04-10T21:44:23.387Z,15.35
2023-04-10T21:46:51.220Z,15.32
2023-04-10T21:49:18.987Z,15.26
2023-04-10T21:51:46.632Z,15.27
2023-04-10T21:54:16.023Z,15.22
2023-04-10T21:56:43.628Z,15.22
2023-04-10T21:59:11.553Z,15.21
2023-04-10T22:01:41.490Z,15.21
2023-04-10T22:04:09.477Z,15.24
2023-04-10T22:06:37.229Z,15.30
2023-04-10T22:09:05.058Z,15.26
2023-04-10T22:11:34.675Z,15.22
2023-04-10T22:14:14.887Z,15.10
2023-04-10T22:16:45.538Z,15.10
2023-04-10T22:19:13.417Z,14.96
2023-04-10T22:21:41.185Z,14.82
2023-04-10T22:24:09.267Z,14.46
2023-04-10T22:26:38.351Z,14.19
2023-04-10T22:29:06.033Z,14.06
2023-04-10T22:31:33.740Z,14.00
2023-04-10T22:34:01.422Z,14.06
2023-04-10T22:36:32.795Z,13.97
2023-04-10T22:39:00.490Z,13.95
2023-04-10T22:41:28.403Z,13.91
2023-04-10T22:43:57.468Z,13.83
2023-04-10T22:46:25.363Z,13.59
2023-04-10T22:48:54.186Z,13.63
2023-04-10T22:51:22.089Z,13.70
2023-04-10T22:53:49.735Z,13.74
2023-04-10T22:56:18.549Z,13.55
2023-04-10T22:58:46.286Z,13.32
2023-04-10T23:01:15.767Z,13.08
2023-04-10T23:03:43.449Z,12.93
2023-04-10T23:06:11.174Z,12.80
2023-04-10T23:08:38.888Z,12.68
2023-04-10T23:11:07.024Z,12.53
2023-04-10T23:13:34.882Z,12.56
2023-04-10T23:16:02.516Z,12.43
2023-04-10T23:18:31.511Z,12.40
2023-04-10T23:20:59.150Z,12.34
2023-04-10T23:23:26.877Z,12.41
2023-04-10T23:25:59.142Z,12.38
2023-04-10T23:28:26.955Z,12.39
2023-04-10T23:30:54.643Z,12.41
2023-04-10T23:33:22.525Z,12.38
2023-04-10T23:35:51.606Z,12.27
2023-04-10T23:38:19.429Z,12.25
2023-04-10T23:40:47.343Z,12.06
2023-04-10T23:43:15.214Z,12.04
2023-04-10T23:45:42.905Z,11.98
2023-04-10T23:48:11.710Z,11.98
2023-04-10T23:50:39.641Z,11.88
2023-04-10T23:53:09.169Z,11.91
2023-04-10T23:55:36.891Z,11.91
2023-04-10T23:58:04.714Z,11.74
